sensor_id;sensor_type;location;lat;lon;timestamp;temperature;humidity
70074;DHT22;57445;51.058;3.698;2022-10-16T00:00:31;15.30;94.60
70074;DHT22;57445;51.058;3.698;2022-10-16T00:02:58;15.50;94.30
70074;DHT22;57445;51.058;3.698;2022-10-16T00:05:40;15.50;94.30
70074;DHT22;57445;51.058;3.698;2022-10-16T00:08:11;15.50;94.30
70074;DHT22;57445;51.058;3.698;2022-10-16T00:10:39;15.70;93.90
70074;DHT22;57445;51.058;3.698;2022-10-16T00:13:07;15.50;94.20
70074;DHT22;57445;51.058;3.698;2022-10-16T00:15:36;15.40;94.30
70074;DHT22;57445;51.058;3.698;2022-10-16T00:18:10;15.40;94.60
70074;DHT22;57445;51.058;3.698;2022-10-16T00:20:37;15.50;94.30
70074;DHT22;57445;51.058;3.698;2022-10-16T00:23:07;15.50;94.50
70074;DHT22;57445;51.058;3.698;2022-10-16T00:25:38;15.30;94.70
70074;DHT22;57445;51.058;3.698;2022-10-16T00:28:10;15.30;94.90
70074;DHT22;57445;51.058;3.698;2022-10-16T00:30:38;15.30;95.00
70074;DHT22;57445;51.058;3.698;2022-10-16T00:33:06;15.30;94.90
70074;DHT22;57445;51.058;3.698;2022-10-16T00:35:34;15.00;95.60
70074;DHT22;57445;51.058;3.698;2022-10-16T00:38:01;14.90;95.70
70074;DHT22;57445;51.058;3.698;2022-10-16T00:40:34;14.80;95.90
70074;DHT22;57445;51.058;3.698;2022-10-16T00:43:04;14.80;95.90
70074;DHT22;57445;51.058;3.698;2022-10-16T00:45:32;14.80;96.00
70074;DHT22;57445;51.058;3.698;2022-10-16T00:47:59;14.90;95.80
70074;DHT22;57445;51.058;3.698;2022-10-16T00:50:29;14.70;96.30
70074;DHT22;57445;51.058;3.698;2022-10-16T00:52:58;14.90;96.10
70074;DHT22;57445;51.058;3.698;2022-10-16T00:55:27;15.00;95.80
70074;DHT22;57445;51.058;3.698;2022-10-16T00:57:57;14.80;96.20
70074;DHT22;57445;51.058;3.698;2022-10-16T01:00:27;14.90;96.20
70074;DHT22;57445;51.058;3.698;2022-10-16T01:02:56;15.00;96.30
70074;DHT22;57445;51.058;3.698;2022-10-16T01:05:28;14.90;96.10
70074;DHT22;57445;51.058;3.698;2022-10-16T01:08:08;14.80;96.50
70074;DHT22;57445;51.058;3.698;2022-10-16T01:10:40;14.90;96.40
70074;DHT22;57445;51.058;3.698;2022-10-16T01:13:10;15.00;96.40
70074;DHT22;57445;51.058;3.698;2022-10-16T01:15:43;15.20;95.90
70074;DHT22;57445;51.058;3.698;2022-10-16T01:18:20;15.10;96.00
70074;DHT22;57445;51.058;3.698;2022-10-16T01:20:53;15.00;96.00
70074;DHT22;57445;51.058;3.698;2022-10-16T01:23:30;15.00;96.10
70074;DHT22;57445;51.058;3.698;2022-10-16T01:26:11;15.00;96.10
70074;DHT22;57445;51.058;3.698;2022-10-16T01:28:45;15.00;96.20
70074;DHT22;57445;51.058;3.698;2022-10-16T01:31:22;15.20;95.60
70074;DHT22;57445;51.058;3.698;2022-10-16T01:33:56;15.00;96.30
70074;DHT22;57445;51.058;3.698;2022-10-16T01:36:26;15.20;95.80
70074;DHT22;57445;51.058;3.698;2022-10-16T01:39:01;15.20;95.70
70074;DHT22;57445;51.058;3.698;2022-10-16T01:41:38;15.20;95.80
70074;DHT22;57445;51.058;3.698;2022-10-16T01:44:11;15.00;96.10
70074;DHT22;57445;51.058;3.698;2022-10-16T01:46:49;15.10;96.00
70074;DHT22;57445;51.058;3.698;2022-10-16T01:49:18;14.90;96.40
70074;DHT22;57445;51.058;3.698;2022-10-16T01:51:49;14.90;96.50
70074;DHT22;57445;51.058;3.698;2022-10-16T01:54:23;14.90;96.60
70074;DHT22;57445;51.058;3.698;2022-10-16T01:56:54;15.00;96.40
70074;DHT22;57445;51.058;3.698;2022-10-16T01:59:25;14.90;96.70
70074;DHT22;57445;51.058;3.698;2022-10-16T02:02:00;15.10;96.30
70074;DHT22;57445;51.058;3.698;2022-10-16T02:04:31;15.10;96.30
70074;DHT22;57445;51.058;3.698;2022-10-16T02:07:05;14.90;96.60
70074;DHT22;57445;51.058;3.698;2022-10-16T02:09:38;14.60;97.10
70074;DHT22;57445;51.058;3.698;2022-10-16T02:12:15;14.50;97.60
70074;DHT22;57445;51.058;3.698;2022-10-16T02:14:44;14.60;97.30
70074;DHT22;57445;51.058;3.698;2022-10-16T02:17:17;14.50;97.60
70074;DHT22;57445;51.058;3.698;2022-10-16T02:19:47;14.60;97.40
70074;DHT22;57445;51.058;3.698;2022-10-16T02:22:18;14.70;97.20
70074;DHT22;57445;51.058;3.698;2022-10-16T02:24:54;14.90;96.70
70074;DHT22;57445;51.058;3.698;2022-10-16T02:27:27;15.00;96.40
70074;DHT22;57445;51.058;3.698;2022-10-16T02:30:04;14.90;96.60
70074;DHT22;57445;51.058;3.698;2022-10-16T02:32:37;14.90;96.80
70074;DHT22;57445;51.058;3.698;2022-10-16T02:35:06;14.90;96.90
70074;DHT22;57445;51.058;3.698;2022-10-16T02:37:40;14.90;96.80
70074;DHT22;57445;51.058;3.698;2022-10-16T02:40:13;15.00;96.40
70074;DHT22;57445;51.058;3.698;2022-10-16T02:42:41;15.00;96.50
70074;DHT22;57445;51.058;3.698;2022-10-16T02:45:11;15.10;96.70
70074;DHT22;57445;51.058;3.698;2022-10-16T02:47:39;14.70;97.10
70074;DHT22;57445;51.058;3.698;2022-10-16T02:50:11;14.80;97.20
70074;DHT22;57445;51.058;3.698;2022-10-16T02:52:39;14.90;96.80
70074;DHT22;57445;51.058;3.698;2022-10-16T02:55:11;14.70;97.00
70074;DHT22;57445;51.058;3.698;2022-10-16T02:57:38;14.50;97.50
70074;DHT22;57445;51.058;3.698;2022-10-16T03:00:14;14.30;97.70
70074;DHT22;57445;51.058;3.698;2022-10-16T03:02:42;14.40;97.80
70074;DHT22;57445;51.058;3.698;2022-10-16T03:05:10;14.30;98.10
70074;DHT22;57445;51.058;3.698;2022-10-16T03:07:38;14.10;98.30
70074;DHT22;57445;51.058;3.698;2022-10-16T03:10:07;14.10;98.40
70074;DHT22;57445;51.058;3.698;2022-10-16T03:12:34;14.30;98.10
70074;DHT22;57445;51.058;3.698;2022-10-16T03:15:07;14.50;97.60
70074;DHT22;57445;51.058;3.698;2022-10-16T03:17:37;14.70;97.20
70074;DHT22;57445;51.058;3.698;2022-10-16T03:20:05;15.10;96.70
70074;DHT22;57445;51.058;3.698;2022-10-16T03:22:33;15.00;96.30
70074;DHT22;57445;51.058;3.698;2022-10-16T03:25:01;15.10;96.20
70074;DHT22;57445;51.058;3.698;2022-10-16T03:27:33;15.00;96.40
70074;DHT22;57445;51.058;3.698;2022-10-16T03:30:01;14.90;96.60
70074;DHT22;57445;51.058;3.698;2022-10-16T03:32:29;14.90;96.40
70074;DHT22;57445;51.058;3.698;2022-10-16T03:34:58;14.90;96.20
70074;DHT22;57445;51.058;3.698;2022-10-16T03:37:26;14.80;96.60
70074;DHT22;57445;51.058;3.698;2022-10-16T03:39:58;14.80;96.70
70074;DHT22;57445;51.058;3.698;2022-10-16T03:42:26;14.40;97.30
70074;DHT22;57445;51.058;3.698;2022-10-16T03:44:58;14.50;97.40
70074;DHT22;57445;51.058;3.698;2022-10-16T03:47:26;14.50;97.50
70074;DHT22;57445;51.058;3.698;2022-10-16T03:49:54;14.30;97.50
70074;DHT22;57445;51.058;3.698;2022-10-16T03:52:23;14.40;97.60
70074;DHT22;57445;51.058;3.698;2022-10-16T03:54:51;14.50;97.30
70074;DHT22;57445;51.058;3.698;2022-10-16T03:57:18;14.50;97.10
70074;DHT22;57445;51.058;3.698;2022-10-16T03:59:46;14.50;97.30
70074;DHT22;57445;51.058;3.698;2022-10-16T04:02:14;14.40;97.40
70074;DHT22;57445;51.058;3.698;2022-10-16T04:04:42;14.60;97.00
70074;DHT22;57445;51.058;3.698;2022-10-16T04:07:09;14.30;97.50
70074;DHT22;57445;51.058;3.698;2022-10-16T04:09:39;14.50;97.30
70074;DHT22;57445;51.058;3.698;2022-10-16T04:12:11;14.50;97.10
70074;DHT22;57445;51.058;3.698;2022-10-16T04:14:38;14.10;97.60
70074;DHT22;57445;51.058;3.698;2022-10-16T04:17:06;14.00;98.10
70074;DHT22;57445;51.058;3.698;2022-10-16T04:19:33;14.20;97.90
70074;DHT22;57445;51.058;3.698;2022-10-16T04:22:01;14.20;97.80
70074;DHT22;57445;51.058;3.698;2022-10-16T04:24:29;14.00;98.00
70074;DHT22;57445;51.058;3.698;2022-10-16T04:27:02;14.00;98.20
70074;DHT22;57445;51.058;3.698;2022-10-16T04:29:34;14.20;97.80
70074;DHT22;57445;51.058;3.698;2022-10-16T04:32:02;14.10;97.80
70074;DHT22;57445;51.058;3.698;2022-10-16T04:34:30;14.00;98.10
70074;DHT22;57445;51.058;3.698;2022-10-16T04:36:58;13.90;98.40
70074;DHT22;57445;51.058;3.698;2022-10-16T04:39:25;14.00;98.40
70074;DHT22;57445;51.058;3.698;2022-10-16T04:41:58;14.30;97.70
70074;DHT22;57445;51.058;3.698;2022-10-16T04:44:29;14.10;97.80
70074;DHT22;57445;51.058;3.698;2022-10-16T04:46:57;14.10;98.00
70074;DHT22;57445;51.058;3.698;2022-10-16T04:49:31;13.90;98.40
70074;DHT22;57445;51.058;3.698;2022-10-16T04:51:59;14.20;97.60
70074;DHT22;57445;51.058;3.698;2022-10-16T04:54:27;14.30;97.60
70074;DHT22;57445;51.058;3.698;2022-10-16T04:56:55;14.20;97.80
70074;DHT22;57445;51.058;3.698;2022-10-16T04:59:23;14.10;97.90
70074;DHT22;57445;51.058;3.698;2022-10-16T05:01:52;14.20;98.00
70074;DHT22;57445;51.058;3.698;2022-10-16T05:04:20;14.20;97.70
70074;DHT22;57445;51.058;3.698;2022-10-16T05:06:48;14.30;97.70
70074;DHT22;57445;51.058;3.698;2022-10-16T05:09:16;14.30;97.60
70074;DHT22;57445;51.058;3.698;2022-10-16T05:11:43;14.10;98.10
70074;DHT22;57445;51.058;3.698;2022-10-16T05:14:16;13.90;98.70
70074;DHT22;57445;51.058;3.698;2022-10-16T05:16:43;13.70;99.10
70074;DHT22;57445;51.058;3.698;2022-10-16T05:19:12;14.00;98.70
70074;DHT22;57445;51.058;3.698;2022-10-16T05:21:40;14.40;98.00
70074;DHT22;57445;51.058;3.698;2022-10-16T05:24:13;14.40;97.70
70074;DHT22;57445;51.058;3.698;2022-10-16T05:26:40;14.30;97.60
70074;DHT22;57445;51.058;3.698;2022-10-16T05:29:09;14.10;98.20
70074;DHT22;57445;51.058;3.698;2022-10-16T05:31:41;14.10;98.30
70074;DHT22;57445;51.058;3.698;2022-10-16T05:34:09;14.20;98.20
70074;DHT22;57445;51.058;3.698;2022-10-16T05:36:38;14.10;98.30
70074;DHT22;57445;51.058;3.698;2022-10-16T05:39:05;14.20;98.10
70074;DHT22;57445;51.058;3.698;2022-10-16T05:41:33;14.20;98.20
70074;DHT22;57445;51.058;3.698;2022-10-16T05:44:05;14.30;98.20
70074;DHT22;57445;51.058;3.698;2022-10-16T05:46:37;14.40;98.00
70074;DHT22;57445;51.058;3.698;2022-10-16T05:49:05;14.50;97.60
70074;DHT22;57445;51.058;3.698;2022-10-16T05:51:33;14.40;97.50
70074;DHT22;57445;51.058;3.698;2022-10-16T05:54:08;14.60;97.30
70074;DHT22;57445;51.058;3.698;2022-10-16T05:56:41;14.30;97.60
70074;DHT22;57445;51.058;3.698;2022-10-16T05:59:08;14.10;98.20
70074;DHT22;57445;51.058;3.698;2022-10-16T06:01:40;14.00;98.30
70074;DHT22;57445;51.058;3.698;2022-10-16T06:04:08;14.10;98.20
70074;DHT22;57445;51.058;3.698;2022-10-16T06:06:41;14.30;97.90
70074;DHT22;57445;51.058;3.698;2022-10-16T06:09:10;14.10;98.10
70074;DHT22;57445;51.058;3.698;2022-10-16T06:11:42;14.20;98.40
70074;DHT22;57445;51.058;3.698;2022-10-16T06:14:14;14.10;98.20
70074;DHT22;57445;51.058;3.698;2022-10-16T06:16:46;14.20;97.90
70074;DHT22;57445;51.058;3.698;2022-10-16T06:19:16;14.40;97.70
70074;DHT22;57445;51.058;3.698;2022-10-16T06:21:45;14.50;97.60
70074;DHT22;57445;51.058;3.698;2022-10-16T06:24:14;14.30;97.60
70074;DHT22;57445;51.058;3.698;2022-10-16T06:26:42;14.30;97.70
70074;DHT22;57445;51.058;3.698;2022-10-16T06:29:09;14.30;98.00
70074;DHT22;57445;51.058;3.698;2022-10-16T06:31:41;14.40;97.70
70074;DHT22;57445;51.058;3.698;2022-10-16T06:34:10;14.30;97.70
70074;DHT22;57445;51.058;3.698;2022-10-16T06:36:39;14.40;97.70
70074;DHT22;57445;51.058;3.698;2022-10-16T06:39:06;14.70;97.10
70074;DHT22;57445;51.058;3.698;2022-10-16T06:41:35;14.90;96.90
70074;DHT22;57445;51.058;3.698;2022-10-16T06:44:05;14.80;96.70
70074;DHT22;57445;51.058;3.698;2022-10-16T06:46:34;14.70;97.20
70074;DHT22;57445;51.058;3.698;2022-10-16T06:49:01;14.40;97.40
70074;DHT22;57445;51.058;3.698;2022-10-16T06:51:33;14.20;98.00
70074;DHT22;57445;51.058;3.698;2022-10-16T06:54:07;14.30;98.00
70074;DHT22;57445;51.058;3.698;2022-10-16T06:56:36;14.30;97.90
70074;DHT22;57445;51.058;3.698;2022-10-16T06:59:04;14.50;97.80
70074;DHT22;57445;51.058;3.698;2022-10-16T07:01:36;14.70;97.20
70074;DHT22;57445;51.058;3.698;2022-10-16T07:04:04;15.10;96.40
70074;DHT22;57445;51.058;3.698;2022-10-16T07:06:33;15.10;96.50
70074;DHT22;57445;51.058;3.698;2022-10-16T07:09:06;15.10;96.50
70074;DHT22;57445;51.058;3.698;2022-10-16T07:11:35;15.10;96.30
70074;DHT22;57445;51.058;3.698;2022-10-16T07:14:04;15.10;96.30
70074;DHT22;57445;51.058;3.698;2022-10-16T07:16:36;15.20;96.20
70074;DHT22;57445;51.058;3.698;2022-10-16T07:19:04;15.30;95.90
70074;DHT22;57445;51.058;3.698;2022-10-16T07:21:36;15.80;95.70
70074;DHT22;57445;51.058;3.698;2022-10-16T07:24:12;15.20;96.10
70074;DHT22;57445;51.058;3.698;2022-10-16T07:26:44;15.10;96.40
70074;DHT22;57445;51.058;3.698;2022-10-16T07:29:19;14.90;96.20
70074;DHT22;57445;51.058;3.698;2022-10-16T07:31:47;15.00;96.50
70074;DHT22;57445;51.058;3.698;2022-10-16T07:34:16;15.50;96.10
70074;DHT22;57445;51.058;3.698;2022-10-16T07:36:50;15.00;96.40
70074;DHT22;57445;51.058;3.698;2022-10-16T07:39:18;15.00;96.60
70074;DHT22;57445;51.058;3.698;2022-10-16T07:41:47;15.20;96.30
70074;DHT22;57445;51.058;3.698;2022-10-16T07:44:15;15.20;96.40
70074;DHT22;57445;51.058;3.698;2022-10-16T07:46:43;15.30;96.10
70074;DHT22;57445;51.058;3.698;2022-10-16T07:49:16;15.40;95.90
70074;DHT22;57445;51.058;3.698;2022-10-16T07:51:43;15.40;95.80
70074;DHT22;57445;51.058;3.698;2022-10-16T07:54:11;15.60;95.50
70074;DHT22;57445;51.058;3.698;2022-10-16T07:56:38;15.30;95.60
70074;DHT22;57445;51.058;3.698;2022-10-16T07:59:07;15.70;95.30
70074;DHT22;57445;51.058;3.698;2022-10-16T08:01:40;15.60;95.60
70074;DHT22;57445;51.058;3.698;2022-10-16T08:04:08;15.70;95.30
70074;DHT22;57445;51.058;3.698;2022-10-16T08:06:41;15.70;95.50
70074;DHT22;57445;51.058;3.698;2022-10-16T08:09:09;16.10;95.00
70074;DHT22;57445;51.058;3.698;2022-10-16T08:11:37;16.00;94.90
70074;DHT22;57445;51.058;3.698;2022-10-16T08:14:09;15.80;95.20
70074;DHT22;57445;51.058;3.698;2022-10-16T08:16:37;15.80;95.30
70074;DHT22;57445;51.058;3.698;2022-10-16T08:19:04;15.70;95.20
70074;DHT22;57445;51.058;3.698;2022-10-16T08:21:32;15.90;95.10
70074;DHT22;57445;51.058;3.698;2022-10-16T08:24:05;15.80;95.00
70074;DHT22;57445;51.058;3.698;2022-10-16T08:26:33;15.60;95.70
70074;DHT22;57445;51.058;3.698;2022-10-16T08:29:00;15.60;95.80
70074;DHT22;57445;51.058;3.698;2022-10-16T08:31:29;15.40;95.80
70074;DHT22;57445;51.058;3.698;2022-10-16T08:34:02;15.70;95.60
70074;DHT22;57445;51.058;3.698;2022-10-16T08:36:29;15.90;95.50
70074;DHT22;57445;51.058;3.698;2022-10-16T08:39:01;15.80;95.50
70074;DHT22;57445;51.058;3.698;2022-10-16T08:41:53;15.60;95.80
70074;DHT22;57445;51.058;3.698;2022-10-16T08:44:42;15.90;95.50
70074;DHT22;57445;51.058;3.698;2022-10-16T08:47:18;15.90;95.30
70074;DHT22;57445;51.058;3.698;2022-10-16T08:49:55;16.30;94.90
70074;DHT22;57445;51.058;3.698;2022-10-16T08:52:27;16.60;94.40
70074;DHT22;57445;51.058;3.698;2022-10-16T08:54:56;16.50;94.30
70074;DHT22;57445;51.058;3.698;2022-10-16T08:57:32;16.60;94.10
70074;DHT22;57445;51.058;3.698;2022-10-16T09:00:08;16.60;94.00
70074;DHT22;57445;51.058;3.698;2022-10-16T09:02:48;16.70;94.20
70074;DHT22;57445;51.058;3.698;2022-10-16T09:05:40;16.60;94.10
70074;DHT22;57445;51.058;3.698;2022-10-16T09:08:25;16.50;94.10
70074;DHT22;57445;51.058;3.698;2022-10-16T09:11:03;16.20;94.60
70074;DHT22;57445;51.058;3.698;2022-10-16T09:13:47;16.10;95.00
70074;DHT22;57445;51.058;3.698;2022-10-16T09:16:24;16.10;95.10
70074;DHT22;57445;51.058;3.698;2022-10-16T09:18:58;16.10;95.20
70074;DHT22;57445;51.058;3.698;2022-10-16T09:21:30;16.20;95.40
70074;DHT22;57445;51.058;3.698;2022-10-16T09:24:04;16.00;95.40
70074;DHT22;57445;51.058;3.698;2022-10-16T09:26:35;16.20;95.40
70074;DHT22;57445;51.058;3.698;2022-10-16T09:29:03;16.60;94.60
70074;DHT22;57445;51.058;3.698;2022-10-16T09:31:31;16.70;94.20
70074;DHT22;57445;51.058;3.698;2022-10-16T09:34:08;16.50;94.20
70074;DHT22;57445;51.058;3.698;2022-10-16T09:36:45;16.40;94.50
70074;DHT22;57445;51.058;3.698;2022-10-16T09:39:17;16.60;94.40
70074;DHT22;57445;51.058;3.698;2022-10-16T09:41:50;16.80;93.90
70074;DHT22;57445;51.058;3.698;2022-10-16T09:44:24;17.00;93.80
70074;DHT22;57445;51.058;3.698;2022-10-16T09:47:01;17.00;93.60
70074;DHT22;57445;51.058;3.698;2022-10-16T09:49:35;16.90;93.80
70074;DHT22;57445;51.058;3.698;2022-10-16T09:52:04;16.80;94.20
70074;DHT22;57445;51.058;3.698;2022-10-16T09:54:36;17.00;93.80
70074;DHT22;57445;51.058;3.698;2022-10-16T09:57:12;17.30;93.30
70074;DHT22;57445;51.058;3.698;2022-10-16T09:59:49;17.70;92.80
70074;DHT22;57445;51.058;3.698;2022-10-16T10:02:18;17.70;92.30
70074;DHT22;57445;51.058;3.698;2022-10-16T10:04:51;17.80;92.20
70074;DHT22;57445;51.058;3.698;2022-10-16T10:07:26;18.40;92.10
70074;DHT22;57445;51.058;3.698;2022-10-16T10:09:59;18.90;90.60
70074;DHT22;57445;51.058;3.698;2022-10-16T10:12:28;19.00;89.80
70074;DHT22;57445;51.058;3.698;2022-10-16T10:15:02;18.70;90.70
70074;DHT22;57445;51.058;3.698;2022-10-16T10:17:46;18.70;90.80
70074;DHT22;57445;51.058;3.698;2022-10-16T10:20:23;18.80;90.20
70074;DHT22;57445;51.058;3.698;2022-10-16T10:22:51;18.90;90.40
70074;DHT22;57445;51.058;3.698;2022-10-16T10:25:41;19.00;89.60
70074;DHT22;57445;51.058;3.698;2022-10-16T10:28:39;18.90;90.00
70074;DHT22;57445;51.058;3.698;2022-10-16T10:31:19;19.30;89.20
70074;DHT22;57445;51.058;3.698;2022-10-16T10:33:54;19.40;88.40
70074;DHT22;57445;51.058;3.698;2022-10-16T10:36:34;18.80;90.00
70074;DHT22;57445;51.058;3.698;2022-10-16T10:39:13;18.50;90.60
70074;DHT22;57445;51.058;3.698;2022-10-16T10:42:08;18.20;91.10
70074;DHT22;57445;51.058;3.698;2022-10-16T10:47:45;19.00;90.30
70074;DHT22;57445;51.058;3.698;2022-10-16T10:50:20;19.10;89.40
70074;DHT22;57445;51.058;3.698;2022-10-16T10:52:58;19.20;88.50
70074;DHT22;57445;51.058;3.698;2022-10-16T10:55:39;19.70;87.50
70074;DHT22;57445;51.058;3.698;2022-10-16T10:58:31;20.10;85.70
70074;DHT22;57445;51.058;3.698;2022-10-16T11:01:06;19.70;86.40
70074;DHT22;57445;51.058;3.698;2022-10-16T11:04:05;19.80;86.40
70074;DHT22;57445;51.058;3.698;2022-10-16T11:06:45;19.90;85.60
70074;DHT22;57445;51.058;3.698;2022-10-16T11:09:18;20.60;82.70
70074;DHT22;57445;51.058;3.698;2022-10-16T11:11:56;20.30;83.70
70074;DHT22;57445;51.058;3.698;2022-10-16T11:14:30;20.10;85.40
70074;DHT22;57445;51.058;3.698;2022-10-16T11:17:08;19.70;85.80
70074;DHT22;57445;51.058;3.698;2022-10-16T11:19:44;19.20;87.70
70074;DHT22;57445;51.058;3.698;2022-10-16T11:22:19;19.80;86.00
70074;DHT22;57445;51.058;3.698;2022-10-16T11:24:54;20.30;83.70
70074;DHT22;57445;51.058;3.698;2022-10-16T11:27:30;21.00;82.10
70074;DHT22;57445;51.058;3.698;2022-10-16T11:30:03;21.80;79.00
70074;DHT22;57445;51.058;3.698;2022-10-16T11:32:39;22.30;75.90
70074;DHT22;57445;51.058;3.698;2022-10-16T11:35:14;22.20;76.40
70074;DHT22;57445;51.058;3.698;2022-10-16T11:37:50;21.70;77.40
70074;DHT22;57445;51.058;3.698;2022-10-16T11:40:25;21.60;77.80
70074;DHT22;57445;51.058;3.698;2022-10-16T11:42:59;21.80;77.20
70074;DHT22;57445;51.058;3.698;2022-10-16T11:45:38;20.70;80.00
70074;DHT22;57445;51.058;3.698;2022-10-16T11:48:15;20.60;80.80
70074;DHT22;57445;51.058;3.698;2022-10-16T11:50:50;20.00;82.80
70074;DHT22;57445;51.058;3.698;2022-10-16T11:53:42;19.90;83.50
70074;DHT22;57445;51.058;3.698;2022-10-16T11:56:18;20.50;82.00
70074;DHT22;57445;51.058;3.698;2022-10-16T11:58:53;21.50;78.50
70074;DHT22;57445;51.058;3.698;2022-10-16T12:01:27;22.10;77.10
70074;DHT22;57445;51.058;3.698;2022-10-16T12:04:05;22.70;75.40
70074;DHT22;57445;51.058;3.698;2022-10-16T12:06:42;22.90;74.50
70074;DHT22;57445;51.058;3.698;2022-10-16T12:09:22;22.90;74.40
70074;DHT22;57445;51.058;3.698;2022-10-16T12:11:54;22.70;73.90
70074;DHT22;57445;51.058;3.698;2022-10-16T12:14:34;22.80;73.20
70074;DHT22;57445;51.058;3.698;2022-10-16T12:17:21;22.30;73.60
70074;DHT22;57445;51.058;3.698;2022-10-16T12:19:58;22.10;75.30
70074;DHT22;57445;51.058;3.698;2022-10-16T12:22:31;22.10;75.00
70074;DHT22;57445;51.058;3.698;2022-10-16T12:24:59;21.70;74.60
70074;DHT22;57445;51.058;3.698;2022-10-16T12:27:33;21.80;74.40
70074;DHT22;57445;51.058;3.698;2022-10-16T12:30:04;22.00;73.80
70074;DHT22;57445;51.058;3.698;2022-10-16T12:32:38;22.20;73.00
70074;DHT22;57445;51.058;3.698;2022-10-16T12:35:18;22.30;73.00
70074;DHT22;57445;51.058;3.698;2022-10-16T12:37:46;22.50;73.20
70074;DHT22;57445;51.058;3.698;2022-10-16T12:40:27;22.40;72.20
70074;DHT22;57445;51.058;3.698;2022-10-16T12:43:11;21.70;74.60
70074;DHT22;57445;51.058;3.698;2022-10-16T12:45:39;21.30;75.40
70074;DHT22;57445;51.058;3.698;2022-10-16T12:48:20;20.80;76.60
70074;DHT22;57445;51.058;3.698;2022-10-16T12:50:53;20.30;78.10
70074;DHT22;57445;51.058;3.698;2022-10-16T12:53:22;20.60;78.50
70074;DHT22;57445;51.058;3.698;2022-10-16T12:56:00;20.80;78.10
70074;DHT22;57445;51.058;3.698;2022-10-16T12:58:47;20.70;78.20
70074;DHT22;57445;51.058;3.698;2022-10-16T13:01:33;20.90;78.40
70074;DHT22;57445;51.058;3.698;2022-10-16T13:04:22;20.80;77.80
70074;DHT22;57445;51.058;3.698;2022-10-16T13:07:03;20.80;78.10
70074;DHT22;57445;51.058;3.698;2022-10-16T13:09:45;20.90;77.80
70074;DHT22;57445;51.058;3.698;2022-10-16T13:12:41;21.30;77.90
70074;DHT22;57445;51.058;3.698;2022-10-16T13:15:34;22.10;75.60
70074;DHT22;57445;51.058;3.698;2022-10-16T13:18:15;22.40;74.00
70074;DHT22;57445;51.058;3.698;2022-10-16T13:21:04;22.60;73.70
70074;DHT22;57445;51.058;3.698;2022-10-16T13:23:48;22.50;73.90
70074;DHT22;57445;51.058;3.698;2022-10-16T13:26:25;22.40;73.30
70074;DHT22;57445;51.058;3.698;2022-10-16T13:28:59;22.40;74.00
70074;DHT22;57445;51.058;3.698;2022-10-16T13:31:29;22.50;73.60
70074;DHT22;57445;51.058;3.698;2022-10-16T13:33:59;22.40;73.50
70074;DHT22;57445;51.058;3.698;2022-10-16T13:36:28;22.70;73.10
70074;DHT22;57445;51.058;3.698;2022-10-16T13:39:11;22.80;72.80
70074;DHT22;57445;51.058;3.698;2022-10-16T13:41:39;23.00;73.00
70074;DHT22;57445;51.058;3.698;2022-10-16T13:44:14;23.10;72.20
70074;DHT22;57445;51.058;3.698;2022-10-16T13:46:58;23.30;71.80
70074;DHT22;57445;51.058;3.698;2022-10-16T13:49:30;23.10;72.00
70074;DHT22;57445;51.058;3.698;2022-10-16T13:51:59;23.30;71.70
70074;DHT22;57445;51.058;3.698;2022-10-16T13:54:27;23.10;71.80
70074;DHT22;57445;51.058;3.698;2022-10-16T13:57:05;22.70;73.30
70074;DHT22;57445;51.058;3.698;2022-10-16T13:59:34;22.60;73.90
70074;DHT22;57445;51.058;3.698;2022-10-16T14:02:17;22.60;74.00
70074;DHT22;57445;51.058;3.698;2022-10-16T14:04:47;22.60;73.80
70074;DHT22;57445;51.058;3.698;2022-10-16T14:07:21;22.40;74.10
70074;DHT22;57445;51.058;3.698;2022-10-16T14:09:52;22.20;74.60
70074;DHT22;57445;51.058;3.698;2022-10-16T14:12:20;22.40;73.60
70074;DHT22;57445;51.058;3.698;2022-10-16T14:14:54;22.30;74.10
70074;DHT22;57445;51.058;3.698;2022-10-16T14:17:26;22.40;74.00
70074;DHT22;57445;51.058;3.698;2022-10-16T14:19:57;22.30;74.50
70074;DHT22;57445;51.058;3.698;2022-10-16T14:22:33;22.20;74.80
70074;DHT22;57445;51.058;3.698;2022-10-16T14:25:22;22.60;74.20
70074;DHT22;57445;51.058;3.698;2022-10-16T14:27:59;22.50;75.40
70074;DHT22;57445;51.058;3.698;2022-10-16T14:30:29;22.30;75.40
70074;DHT22;57445;51.058;3.698;2022-10-16T14:32:59;22.00;76.00
70074;DHT22;57445;51.058;3.698;2022-10-16T14:35:30;21.90;76.60
70074;DHT22;57445;51.058;3.698;2022-10-16T14:37:59;21.90;75.80
70074;DHT22;57445;51.058;3.698;2022-10-16T14:40:29;21.70;76.60
70074;DHT22;57445;51.058;3.698;2022-10-16T14:43:03;21.60;77.40
70074;DHT22;57445;51.058;3.698;2022-10-16T14:45:35;21.80;76.00
70074;DHT22;57445;51.058;3.698;2022-10-16T14:48:12;21.70;76.00
70074;DHT22;57445;51.058;3.698;2022-10-16T14:50:44;21.70;75.90
70074;DHT22;57445;51.058;3.698;2022-10-16T14:53:12;21.70;75.40
70074;DHT22;57445;51.058;3.698;2022-10-16T14:55:41;21.60;76.00
70074;DHT22;57445;51.058;3.698;2022-10-16T14:58:15;21.30;74.90
70074;DHT22;57445;51.058;3.698;2022-10-16T15:00:48;21.00;75.30
70074;DHT22;57445;51.058;3.698;2022-10-16T15:03:18;21.10;74.60
70074;DHT22;57445;51.058;3.698;2022-10-16T15:05:45;21.10;75.00
70074;DHT22;57445;51.058;3.698;2022-10-16T15:08:17;21.20;74.50
70074;DHT22;57445;51.058;3.698;2022-10-16T15:10:45;21.00;75.20
70074;DHT22;57445;51.058;3.698;2022-10-16T15:13:18;21.00;75.80
70074;DHT22;57445;51.058;3.698;2022-10-16T15:15:47;21.10;75.20
70074;DHT22;57445;51.058;3.698;2022-10-16T15:18:21;21.00;75.70
70074;DHT22;57445;51.058;3.698;2022-10-16T15:20:50;21.20;75.50
70074;DHT22;57445;51.058;3.698;2022-10-16T15:23:20;21.30;75.30
70074;DHT22;57445;51.058;3.698;2022-10-16T15:25:54;21.20;75.70
70074;DHT22;57445;51.058;3.698;2022-10-16T15:28:27;21.10;76.20
70074;DHT22;57445;51.058;3.698;2022-10-16T15:30:59;20.90;76.90
70074;DHT22;57445;51.058;3.698;2022-10-16T15:33:28;21.10;77.20
70074;DHT22;57445;51.058;3.698;2022-10-16T15:35:59;20.80;77.70
70074;DHT22;57445;51.058;3.698;2022-10-16T15:38:35;20.80;78.10
70074;DHT22;57445;51.058;3.698;2022-10-16T15:41:07;20.70;78.70
70074;DHT22;57445;51.058;3.698;2022-10-16T15:43:35;20.60;79.40
70074;DHT22;57445;51.058;3.698;2022-10-16T15:46:04;20.80;79.30
70074;DHT22;57445;51.058;3.698;2022-10-16T15:48:33;20.70;79.20
70074;DHT22;57445;51.058;3.698;2022-10-16T15:51:05;20.70;79.10
70074;DHT22;57445;51.058;3.698;2022-10-16T15:53:33;20.60;79.90
70074;DHT22;57445;51.058;3.698;2022-10-16T15:56:01;20.60;79.50
70074;DHT22;57445;51.058;3.698;2022-10-16T15:58:29;20.50;80.00
70074;DHT22;57445;51.058;3.698;2022-10-16T16:00:57;20.60;79.30
70074;DHT22;57445;51.058;3.698;2022-10-16T16:03:27;20.20;80.40
70074;DHT22;57445;51.058;3.698;2022-10-16T16:06:06;20.40;80.20